Time;durP1;ratioP1;P1;durP2;ratioP2;P2;SDS_P1;SDS_P2;PMS_P1;PMS_P2;Temp;Humidity;BMP_temperature;BMP_pressure;BME280_temperature;BME280_humidity;BME280_pressure;Samples;Min_cycle;Max_cycle;Signal;HPM_P1;HPM_P2
2021/07/18 00:00:21;;;;;;;40.15;26.05;;;;;;;17.20;100.00;96127.53;1028866;28;20050;-66
2021/07/18 00:00:51;;;;;;;42.08;26.83;;;;;;;17.20;100.00;96126.72;1022418;28;20130;-66
2021/07/18 00:01:22;;;;;;;40.35;25.55;;;;;;;17.15;100.00;96113.59;1022809;28;20023;-66
2021/07/18 00:01:52;;;;;;;40.75;25.35;;;;;;;17.23;100.00;96120.84;1022329;29;20600;-67
2021/07/18 00:02:23;;;;;;;42.28;25.63;;;;;;;17.22;100.00;96121.16;1018387;29;20031;-65
2021/07/18 00:02:53;;;;;;;41.65;24.15;;;;;;;17.23;100.00;96122.72;1022791;29;20027;-65
2021/07/18 00:03:23;;;;;;;43.30;24.20;;;;;;;17.20;100.00;96124.88;1022751;28;20554;-66
2021/07/18 00:03:54;;;;;;;41.03;25.40;;;;;;;17.20;100.00;96127.53;1026730;28;20035;-65
2021/07/18 00:04:24;;;;;;;41.88;25.33;;;;;;;17.17;100.00;96128.13;1022983;28;20050;-66
2021/07/18 00:04:55;;;;;;;43.35;26.52;;;;;;;17.16;100.00;96126.53;1026813;28;20030;-66
2021/07/18 00:05:26;;;;;;;41.50;25.23;;;;;;;17.17;100.00;96122.81;1022530;29;20027;-66
2021/07/18 00:05:56;;;;;;;44.63;25.30;;;;;;;17.18;100.00;96118.31;1019968;29;20034;-67
2021/07/18 00:06:27;;;;;;;39.63;24.73;;;;;;;17.14;100.00;96123.41;1022858;29;20074;-66
2021/07/18 00:06:57;;;;;;;39.30;25.20;;;;;;;17.15;100.00;96124.19;1022927;28;20034;-66
2021/07/18 00:07:27;;;;;;;41.15;25.02;;;;;;;17.13;100.00;96119.16;1026574;28;20023;-67
2021/07/18 00:08:03;;;;;;;38.20;25.10;;;;;;;17.13;100.00;96124.47;1030633;28;20507;-66
2021/07/18 00:08:33;;;;;;;44.53;25.33;;;;;;;17.11;100.00;96120.56;1031034;28;20396;-66
2021/07/18 00:09:04;;;;;;;41.97;26.48;;;;;;;17.04;100.00;96112.22;1022456;28;20027;-66
2021/07/18 00:09:35;;;;;;;37.70;25.02;;;;;;;17.09;100.00;96125.38;1019504;29;20114;-66
2021/07/18 00:10:05;;;;;;;38.53;24.33;;;;;;;17.08;100.00;96121.16;1022965;29;20019;-66
2021/07/18 00:10:36;;;;;;;35.25;24.05;;;;;;;17.07;100.00;96112.41;1022816;28;20027;-65
2021/07/18 00:11:06;;;;;;;43.17;26.08;;;;;;;17.01;100.00;96118.09;1030769;28;20030;-66
2021/07/18 00:11:37;;;;;;;43.63;25.55;;;;;;;17.07;100.00;96119.56;1022639;29;20019;-67
2021/07/18 00:12:08;;;;;;;44.08;24.83;;;;;;;17.05;100.00;96114.56;1022194;29;20031;-66
2021/07/18 00:12:38;;;;;;;40.53;25.38;;;;;;;17.05;100.00;96117.22;1015787;29;20051;-65
2021/07/18 00:13:09;;;;;;;39.30;23.80;;;;;;;17.07;100.00;96116.91;1018868;29;20027;-66
2021/07/18 00:13:39;;;;;;;39.92;24.88;;;;;;;17.05;100.00;96122.53;1022817;29;20031;-66
2021/07/18 00:14:10;;;;;;;40.03;26.88;;;;;;;17.04;100.00;96123.59;1025727;28;20038;-66
2021/07/18 00:14:40;;;;;;;39.05;24.05;;;;;;;17.02;100.00;96120.44;1026920;28;20043;-66
2021/07/18 00:15:11;;;;;;;41.80;24.95;;;;;;;17.04;100.00;96118.31;1030689;28;20742;-66
2021/07/18 00:15:42;;;;;;;38.47;24.95;;;;;;;17.03;100.00;96122.00;1030592;28;20030;-67
2021/07/18 00:16:12;;;;;;;40.03;24.73;;;;;;;17.01;100.00;96118.09;1030780;28;20030;-66
2021/07/18 00:16:42;;;;;;;37.60;23.92;;;;;;;16.94;100.00;96108.66;1037450;28;20038;-66
2021/07/18 00:17:13;;;;;;;38.55;24.25;;;;;;;17.00;100.00;96119.97;1038438;28;20025;-66
2021/07/18 00:17:43;;;;;;;42.75;25.45;;;;;;;16.99;100.00;96118.38;1026619;28;20105;-66
2021/07/18 00:18:14;;;;;;;35.50;23.73;;;;;;;16.94;100.00;96118.50;1018960;29;20088;-66
2021/07/18 00:18:44;;;;;;;37.47;22.50;;;;;;;17.00;100.00;96117.31;1017016;29;20028;-66
2021/07/18 00:19:15;;;;;;;37.08;24.02;;;;;;;16.92;100.00;96110.81;1016842;29;20099;-66
2021/07/18 00:19:45;;;;;;;38.88;24.95;;;;;;;16.97;100.00;96112.63;1017246;29;20040;-66
2021/07/18 00:20:16;;;;;;;39.33;25.67;;;;;;;16.98;100.00;96121.34;1022716;28;20034;-66
2021/07/18 00:20:47;;;;;;;45.33;25.20;;;;;;;16.97;100.00;96123.22;1024395;28;20587;-65
2021/07/18 00:21:17;;;;;;;38.03;24.05;;;;;;;16.97;100.00;96123.22;1019070;28;20028;-66
2021/07/18 00:21:47;;;;;;;38.33;24.85;;;;;;;16.96;100.00;96121.63;1021742;28;20052;-66
2021/07/18 00:22:18;;;;;;;38.53;23.70;;;;;;;16.96;100.00;96124.28;1023325;28;20027;-66
2021/07/18 00:22:48;;;;;;;39.45;24.30;;;;;;;16.96;100.00;96125.06;1014288;29;20071;-66
2021/07/18 00:23:19;;;;;;;37.30;24.65;;;;;;;16.97;100.00;96117.91;1015060;29;20478;-65
2021/07/18 00:23:49;;;;;;;40.42;24.60;;;;;;;16.96;100.00;96124.28;1014153;29;20039;-66
2021/07/18 00:24:20;;;;;;;36.00;23.38;;;;;;;16.99;100.00;96126.34;1010581;29;20438;-67
2021/07/18 00:24:50;;;;;;;34.58;23.15;;;;;;;17.01;100.00;96123.41;1022096;29;20393;-66
2021/07/18 00:25:21;;;;;;;37.78;24.58;;;;;;;16.98;100.00;96124.78;1022817;28;20039;-66
2021/07/18 00:25:51;;;;;;;38.10;23.92;;;;;;;16.95;100.00;96112.09;1029830;28;20106;-66
2021/07/18 00:26:22;;;;;;;35.80;23.58;;;;;;;16.98;100.00;96118.69;1026472;28;20027;-66
2021/07/18 00:26:55;;;;;;;34.45;22.98;;;;;;;16.96;100.00;96117.09;1030839;28;20085;-65
2021/07/18 00:27:25;;;;;;;37.40;24.70;;;;;;;16.95;100.00;96120.06;1030804;28;20030;-66
2021/07/18 00:27:56;;;;;;;41.17;24.13;;;;;;;16.95;100.00;96114.75;1026989;28;20026;-66
2021/07/18 00:28:26;;;;;;;37.05;22.77;;;;;;;16.95;100.00;96112.09;1027250;28;20031;-66
2021/07/18 00:28:57;;;;;;;34.28;23.10;;;;;;;16.97;100.00;96115.25;1033234;28;20026;-66
2021/07/18 00:29:27;;;;;;;30.38;22.60;;;;;;;16.93;100.00;96114.25;1033255;28;20026;-66
2021/07/18 00:29:58;;;;;;;34.28;21.83;;;;;;;17.00;100.00;96119.16;1023038;29;20027;-66
2021/07/18 00:30:28;;;;;;;37.33;23.17;;;;;;;16.99;100.00;96114.94;1023100;28;20066;-66
2021/07/18 00:30:59;;;;;;;32.55;22.55;;;;;;;16.96;100.00;96116.31;1026450;28;20081;-64
2021/07/18 00:31:30;;;;;;;36.90;22.65;;;;;;;16.94;100.00;96113.19;1026604;28;20034;-65
2021/07/18 00:32:00;;;;;;;40.00;22.40;;;;;;;16.88;100.00;96104.53;1026523;28;20505;-66
2021/07/18 00:32:31;;;;;;;32.08;22.52;;;;;;;16.94;100.00;96118.50;1022987;28;20035;-66
2021/07/18 00:33:02;;;;;;;36.17;23.10;;;;;;;16.94;100.00;96124.56;1024104;28;20374;-66
2021/07/18 00:33:32;;;;;;;39.13;23.52;;;;;;;16.94;100.00;96118.50;1022764;29;20673;-66
2021/07/18 00:34:03;;;;;;;33.67;22.30;;;;;;;16.94;100.00;96118.50;1018967;29;20031;-65
2021/07/18 00:34:33;;;;;;;34.22;22.85;;;;;;;16.96;100.00;96116.31;1019598;28;20027;-68
2021/07/18 00:35:04;;;;;;;37.40;22.52;;;;;;;16.99;100.00;96121.03;1022892;28;20144;-66
2021/07/18 00:35:35;;;;;;;37.50;24.10;;;;;;;16.98;100.00;96121.34;1022752;28;20026;-66
2021/07/18 00:36:05;;;;;;;35.22;22.20;;;;;;;16.98;100.00;96118.69;1022510;28;20030;-66
2021/07/18 00:36:37;;;;;;;30.50;22.15;;;;;;;16.87;100.00;96108.28;1019421;29;20054;-66
2021/07/18 00:37:07;;;;;;;35.30;22.48;;;;;;;16.95;100.00;96120.06;1027763;28;20014;-66
2021/07/18 00:37:38;;;;;;;36.13;22.55;;;;;;;16.95;100.00;96120.84;1019625;29;20028;-66
2021/07/18 00:38:08;;;;;;;35.78;23.38;;;;;;;16.98;100.00;96126.66;1018223;29;20036;-66
2021/07/18 00:38:39;;;;;;;35.20;22.95;;;;;;;16.90;100.00;96120.13;1019879;29;20473;-65
2021/07/18 00:39:09;;;;;;;31.45;21.63;;;;;;;16.94;100.00;96127.22;1019494;29;20544;-66
2021/07/18 00:39:39;;;;;;;34.65;23.27;;;;;;;16.93;100.00;96119.56;1017710;29;20596;-68
2021/07/18 00:40:10;;;;;;;34.47;22.27;;;;;;;16.88;100.00;96119.66;1020235;28;20659;-66
2021/07/18 00:40:41;;;;;;;35.00;23.02;;;;;;;16.92;100.00;96126.72;1023530;28;20780;-65
2021/07/18 00:41:11;;;;;;;37.80;22.92;;;;;;;16.95;100.00;96120.06;1021773;29;20030;-64
2021/07/18 00:41:43;;;;;;;32.95;21.98;;;;;;;16.86;100.00;96121.81;1018863;29;20078;-66
2021/07/18 00:42:19;;;;;;;33.38;22.35;;;;;;;16.98;100.00;96122.13;1015641;29;20020;-66
2021/07/18 00:42:50;;;;;;;36.92;23.40;;;;;;;16.97;100.00;96117.91;1021655;28;20514;-66
2021/07/18 00:43:21;;;;;;;37.13;22.80;;;;;;;16.91;100.00;96111.91;1028543;28;20050;-66
2021/07/18 00:43:52;;;;;;;35.80;23.20;;;;;;;16.95;100.00;96117.41;1028417;28;20039;-66
2021/07/18 00:44:23;;;;;;;29.20;21.75;;;;;;;16.90;100.00;96107.69;1032216;28;20030;-66
2021/07/18 00:44:53;;;;;;;33.05;21.88;;;;;;;16.91;100.00;96108.47;1031741;28;20026;-66
2021/07/18 00:45:24;;;;;;;37.67;22.27;;;;;;;16.92;100.00;96118.78;1034498;28;20065;-66
2021/07/18 00:45:58;;;;;;;34.33;22.30;;;;;;;16.89;100.00;96122.00;1035949;28;20034;-66
2021/07/18 00:46:28;;;;;;;35.90;21.05;;;;;;;16.90;100.00;96112.19;1031420;28;20093;-69
2021/07/18 00:46:59;;;;;;;39.47;22.95;;;;;;;16.91;100.00;96127.03;1030437;28;20057;-66
2021/07/18 00:47:30;;;;;;;33.15;22.13;;;;;;;16.91;100.00;96116.44;1031241;28;20106;-65
2021/07/18 00:48:00;;;;;;;31.73;21.38;;;;;;;16.88;100.00;96124.97;1032002;28;20030;-65
2021/07/18 00:48:30;;;;;;;35.05;21.50;;;;;;;16.87;100.00;96124.19;1031901;28;20768;-65
2021/07/18 00:49:01;;;;;;;36.47;20.33;;;;;;;16.88;100.00;96124.97;1032172;28;20093;-66
2021/07/18 00:49:31;;;;;;;34.03;21.40;;;;;;;16.89;100.00;96126.53;1027725;28;20639;-66
2021/07/18 00:50:09;;;;;;;34.38;21.50;;;;;;;16.88;100.00;96119.66;1025677;28;20065;-65
2021/07/18 00:50:43;;;;;;;36.42;22.77;;;;;;;16.89;100.00;96121.22;1029671;28;20751;-66
2021/07/18 00:51:14;;;;;;;31.15;20.92;;;;;;;16.81;100.00;96108.66;1029131;28;20031;-66
2021/07/18 00:51:44;;;;;;;35.70;21.55;;;;;;;16.89;100.00;96118.56;1023941;28;20034;-66
2021/07/18 00:52:15;;;;;;;29.77;20.27;;;;;;;16.83;100.00;96111.78;1023298;29;20031;-66
2021/07/18 00:52:45;;;;;;;32.35;20.25;;;;;;;16.90;100.00;96112.19;1029143;28;20831;-65
2021/07/18 00:53:16;;;;;;;31.83;20.48;;;;;;;16.85;100.00;96104.34;1027292;28;20026;-65
2021/07/18 00:53:46;;;;;;;33.88;20.63;;;;;;;16.86;100.00;96117.28;1034534;28;20503;-65
2021/07/18 00:54:17;;;;;;;31.92;20.13;;;;;;;16.89;100.00;96118.56;1027543;28;20519;-66
2021/07/18 00:54:47;;;;;;;32.55;20.05;;;;;;;16.89;100.00;96111.41;1031540;28;20034;-66
2021/07/18 00:55:19;;;;;;;29.77;20.17;;;;;;;16.85;100.00;96109.66;1019590;29;20020;-66
2021/07/18 00:55:50;;;;;;;34.60;20.75;;;;;;;16.89;100.00;96106.09;1024301;28;20015;-67
2021/07/18 00:56:20;;;;;;;30.92;19.85;;;;;;;16.91;100.00;96116.44;1019619;29;20023;-67
2021/07/18 00:56:51;;;;;;;33.97;20.02;;;;;;;16.89;100.00;96111.41;1027448;28;20103;-66
2021/07/18 00:57:21;;;;;;;34.65;20.70;;;;;;;16.87;100.00;96110.94;1014951;29;20028;-66
2021/07/18 00:57:52;;;;;;;36.85;20.08;;;;;;;16.89;100.00;96119.34;1027657;28;20027;-65
2021/07/18 00:58:24;;;;;;;27.83;19.92;;;;;;;16.88;100.00;96119.66;1027412;28;20393;-66
2021/07/18 00:58:56;;;;;;;33.03;20.13;;;;;;;16.89;100.00;96110.63;1023415;29;20025;-66
2021/07/18 00:59:26;;;;;;;32.22;19.77;;;;;;;16.89;100.00;96102.66;1019725;29;20133;-66
2021/07/18 00:59:57;;;;;;;31.98;19.45;;;;;;;16.88;100.00;96106.41;1019356;29;20091;-67
2021/07/18 01:00:27;;;;;;;34.30;20.48;;;;;;;16.88;100.00;96114.34;1020052;29;20064;-66
2021/07/18 01:00:58;;;;;;;35.53;20.60;;;;;;;16.87;100.00;96112.81;1019651;29;20043;-65
2021/07/18 01:01:28;;;;;;;33.85;20.83;;;;;;;16.86;100.00;96109.34;1026996;28;20054;-66
2021/07/18 01:01:59;;;;;;;33.80;21.05;;;;;;;16.87;100.00;96108.28;1019017;29;20043;-66
2021/07/18 01:02:29;;;;;;;32.88;18.83;;;;;;;16.87;100.00;96110.16;1023456;28;20027;-65
2021/07/18 01:03:01;;;;;;;33.45;20.05;;;;;;;16.81;100.00;96106.00;1023433;29;20023;-66
2021/07/18 01:03:31;;;;;;;32.83;19.83;;;;;;;16.83;100.00;96106.50;1019956;29;20023;-66
2021/07/18 01:04:02;;;;;;;30.10;19.63;;;;;;;16.86;100.00;96105.91;1023004;29;20027;-65
2021/07/18 01:04:32;;;;;;;31.45;19.65;;;;;;;16.82;100.00;96096.97;1023978;28;20015;-66
2021/07/18 01:05:04;;;;;;;33.60;20.58;;;;;;;16.86;100.00;96105.91;1025190;28;20081;-66
2021/07/18 01:05:35;;;;;;;37.08;20.08;;;;;;;16.84;100.00;96105.44;1028673;28;20022;-65
2021/07/18 01:06:05;;;;;;;34.58;19.98;;;;;;;16.85;100.00;96109.66;1035674;28;20026;-66
2021/07/18 01:06:36;;;;;;;33.95;18.77;;;;;;;16.85;100.00;96105.13;1033682;28;20041;-65
2021/07/18 01:07:06;;;;;;;27.98;18.92;;;;;;;16.88;100.00;96106.41;1027565;28;20079;-66
2021/07/18 01:07:36;;;;;;;33.80;20.33;;;;;;;16.87;100.00;96108.28;1024528;28;20023;-66
2021/07/18 01:08:07;;;;;;;25.40;18.42;;;;;;;16.88;100.00;96099.25;1027422;28;20023;-66
2021/07/18 01:08:37;;;;;;;28.55;18.70;;;;;;;16.87;100.00;96100.31;1019104;29;20020;-66
2021/07/18 01:09:08;;;;;;;31.88;18.75;;;;;;;16.87;100.00;96102.19;1011525;29;20490;-66
2021/07/18 01:09:38;;;;;;;29.80;19.58;;;;;;;16.87;100.00;96102.19;1018266;29;20583;-67
2021/07/18 01:10:09;;;;;;;31.70;19.08;;;;;;;16.85;100.00;96109.66;1022838;28;20401;-67
2021/07/18 01:10:40;;;;;;;35.13;20.23;;;;;;;16.87;100.00;96102.19;1027283;28;20062;-66
2021/07/18 01:11:10;;;;;;;33.80;18.83;;;;;;;16.83;100.00;96096.66;1027442;28;20055;-66
2021/07/18 01:11:41;;;;;;;30.85;18.88;;;;;;;16.87;100.00;96102.19;1022604;28;20038;-64
2021/07/18 01:12:12;;;;;;;32.03;19.70;;;;;;;16.87;100.00;96100.31;1026972;28;20027;-65
2021/07/18 01:12:42;;;;;;;32.28;18.38;;;;;;;16.86;100.00;96095.31;1027437;28;20031;-66
2021/07/18 01:13:13;;;;;;;33.00;19.42;;;;;;;16.81;100.00;96088.25;1027365;28;20030;-65
2021/07/18 01:13:43;;;;;;;31.13;19.15;;;;;;;16.84;100.00;96097.47;1023497;28;20027;-65
2021/07/18 01:14:13;;;;;;;28.48;18.83;;;;;;;16.85;100.00;96096.38;1027209;28;20031;-65
2021/07/18 01:14:44;;;;;;;27.98;17.98;;;;;;;16.86;100.00;96095.31;1019348;29;20043;-65
2021/07/18 01:15:14;;;;;;;37.03;18.13;;;;;;;16.83;100.00;96095.88;1019310;29;20028;-66
2021/07/18 01:15:45;;;;;;;27.40;17.58;;;;;;;16.81;100.00;96106.00;1019486;29;20050;-66
2021/07/18 01:16:15;;;;;;;26.58;18.80;;;;;;;16.77;100.00;96086.44;1019272;29;20099;-67
2021/07/18 01:16:46;;;;;;;24.60;17.98;;;;;;;16.80;100.00;96107.06;1023957;28;20042;-66
2021/07/18 01:17:16;;;;;;;29.83;18.52;;;;;;;16.80;100.00;96101.78;1031159;28;20034;-67
2021/07/18 01:17:47;;;;;;;27.35;19.15;;;;;;;16.78;100.00;96102.06;1027520;28;20411;-66
2021/07/18 01:18:17;;;;;;;30.23;16.52;;;;;;;16.77;100.00;96091.75;1027488;28;20512;-66
2021/07/18 01:18:48;;;;;;;30.73;17.80;;;;;;;16.74;100.00;96090.47;1027185;28;21183;-66
2021/07/18 01:19:19;;;;;;;27.92;18.15;;;;;;;16.83;100.00;96098.53;1014960;29;20434;-66
2021/07/18 01:19:49;;;;;;;29.40;18.67;;;;;;;16.83;100.00;96095.88;1015673;29;20455;-67
2021/07/18 01:20:21;;;;;;;29.55;18.30;;;;;;;16.81;100.00;96098.06;1015497;29;20028;-68
2021/07/18 01:20:51;;;;;;;34.72;18.88;;;;;;;16.81;100.00;96100.72;1013448;29;20040;-67
2021/07/18 01:21:23;;;;;;;27.02;17.88;;;;;;;16.78;100.00;96096.00;1019998;29;20114;-66
2021/07/18 01:22:00;;;;;;;28.80;18.23;;;;;;;16.81;100.00;96098.06;1015187;28;20131;-65
2021/07/18 01:22:31;;;;;;;33.53;18.35;;;;;;;16.79;100.00;96102.84;1020446;29;20107;-67
2021/07/18 01:23:01;;;;;;;29.63;17.58;;;;;;;16.75;100.00;96089.41;1023367;28;20101;-66
2021/07/18 01:23:33;;;;;;;26.40;17.52;;;;;;;16.79;100.00;96098.34;1027735;28;20190;-66
2021/07/18 01:24:04;;;;;;;25.88;18.60;;;;;;;16.81;100.00;96098.06;1032995;28;20026;-66
2021/07/18 01:24:35;;;;;;;32.78;17.17;;;;;;;16.75;100.00;96088.63;1030524;28;20034;-68
2021/07/18 01:25:06;;;;;;;30.20;18.48;;;;;;;16.77;100.00;96091.75;1024567;28;20527;-66
2021/07/18 01:25:36;;;;;;;30.27;17.45;;;;;;;16.77;100.00;96100.50;1020283;29;20015;-66
2021/07/18 01:26:07;;;;;;;28.92;17.90;;;;;;;16.77;100.00;96089.09;1021932;29;20452;-67
2021/07/18 01:26:38;;;;;;;29.45;16.95;;;;;;;16.78;100.00;96101.28;1024599;28;20019;-66
2021/07/18 01:27:08;;;;;;;25.17;17.25;;;;;;;16.73;100.00;96102.94;1027332;28;20050;-67
2021/07/18 01:27:39;;;;;;;27.00;17.83;;;;;;;16.76;100.00;96098.13;1027719;28;20030;-66
2021/07/18 01:28:11;;;;;;;31.88;18.65;;;;;;;16.75;100.00;96096.56;1027828;28;20050;-66
2021/07/18 01:28:41;;;;;;;24.58;16.92;;;;;;;16.73;100.00;96091.53;1031277;28;20033;-67
2021/07/18 01:29:12;;;;;;;29.38;17.33;;;;;;;16.73;100.00;96102.13;1023449;29;20046;-65
2021/07/18 01:29:42;;;;;;;26.45;17.48;;;;;;;16.70;100.00;96089.47;1023658;28;20031;-66
2021/07/18 01:30:13;;;;;;;23.75;17.73;;;;;;;16.76;100.00;96098.13;1018760;29;20019;-67
2021/07/18 01:30:44;;;;;;;26.52;17.33;;;;;;;16.79;100.00;96100.22;1019534;29;20024;-69
2021/07/18 01:31:15;;;;;;;27.10;17.27;;;;;;;16.79;100.00;96094.91;1023271;29;20026;-66
2021/07/18 01:31:45;;;;;;;35.65;16.83;;;;;;;16.76;100.00;96092.84;1018567;29;20023;-66
2021/07/18 01:32:16;;;;;;;26.10;17.00;;;;;;;16.75;100.00;96100.00;1019556;29;20387;-66
2021/07/18 01:32:46;;;;;;;25.10;15.75;;;;;;;16.76;100.00;96098.13;1022598;28;20064;-66
2021/07/18 01:33:16;;;;;;;27.35;16.42;;;;;;;16.72;100.00;96089.97;1027297;28;20019;-66
2021/07/18 01:33:47;;;;;;;31.30;16.67;;;;;;;16.75;100.00;96092.06;1027474;28;20039;-65
2021/07/18 01:34:17;;;;;;;35.42;16.98;;;;;;;16.72;100.00;96096.03;1015105;29;20024;-65
2021/07/18 01:34:49;;;;;;;24.63;17.25;;;;;;;16.75;100.00;96096.56;1011790;29;20037;-66
2021/07/18 01:35:20;;;;;;;29.13;16.95;;;;;;;16.75;100.00;96104.53;1015410;29;20051;-66
2021/07/18 01:35:50;;;;;;;28.30;18.20;;;;;;;16.75;100.00;96099.22;1019114;29;20042;-68
2021/07/18 01:36:20;;;;;;;27.25;17.88;;;;;;;16.73;100.00;96097.63;1024012;28;20038;-66
2021/07/18 01:36:51;;;;;;;32.42;17.73;;;;;;;16.69;100.00;96091.31;1027271;28;20039;-66
2021/07/18 01:37:21;;;;;;;28.92;17.52;;;;;;;16.71;100.00;96093.69;1023504;28;20038;-66
2021/07/18 01:37:52;;;;;;;27.52;17.52;;;;;;;16.68;100.00;96088.97;1026988;28;20531;-66
2021/07/18 01:38:22;;;;;;;27.80;16.20;;;;;;;16.67;100.00;96092.72;1027482;28;20038;-66
2021/07/18 01:38:53;;;;;;;26.75;17.65;;;;;;;16.71;100.00;96099.78;1027479;28;20031;-66
2021/07/18 01:39:23;;;;;;;24.80;16.98;;;;;;;16.71;100.00;96099.78;1027028;28;20131;-67
2021/07/18 01:39:54;;;;;;;28.38;16.38;;;;;;;16.70;100.00;96097.44;1023154;29;20031;-67
2021/07/18 01:40:24;;;;;;;33.00;17.05;;;;;;;16.68;100.00;96092.41;1019735;29;20024;-66
2021/07/18 01:40:55;;;;;;;24.25;16.20;;;;;;;16.71;100.00;96097.13;1022393;29;20042;-66
2021/07/18 01:41:25;;;;;;;25.05;16.60;;;;;;;16.72;100.00;96103.22;1019501;28;20611;-66
2021/07/18 01:41:56;;;;;;;29.83;16.33;;;;;;;16.74;100.00;96101.06;1026745;28;20066;-65
2021/07/18 01:42:26;;;;;;;25.25;17.15;;;;;;;16.72;100.00;96096.03;1027422;28;20117;-65
2021/07/18 01:42:57;;;;;;;36.85;17.67;;;;;;;16.71;100.00;96099.00;1023010;28;20035;-66
2021/07/18 01:43:27;;;;;;;28.85;17.45;;;;;;;16.72;100.00;96101.34;1014388;29;20027;-66
2021/07/18 01:43:58;;;;;;;31.90;15.82;;;;;;;16.70;100.00;96092.13;1013332;29;20036;-65
2021/07/18 01:44:28;;;;;;;25.50;16.30;;;;;;;16.71;100.00;96097.13;1010061;29;20040;-66
2021/07/18 01:44:59;;;;;;;28.45;16.35;;;;;;;16.65;100.00;96085.03;1023077;28;20031;-66
2021/07/18 01:45:29;;;;;;;32.80;16.40;;;;;;;16.70;100.00;96092.91;1035130;28;20479;-66
2021/07/18 01:46:00;;;;;;;30.48;16.90;;;;;;;16.70;100.00;96098.22;1030741;28;20027;-66
2021/07/18 01:46:30;;;;;;;35.83;17.35;;;;;;;16.63;100.00;96087.22;1027012;28;20085;-66
2021/07/18 01:47:01;;;;;;;29.45;17.55;;;;;;;16.69;100.00;96101.91;1019274;29;20043;-65
2021/07/18 01:47:31;;;;;;;24.58;16.73;;;;;;;16.68;100.00;96097.72;1018878;29;20024;-67
2021/07/18 01:48:02;;;;;;;27.80;16.25;;;;;;;16.68;100.00;96099.59;1018058;29;20028;-66
2021/07/18 01:48:32;;;;;;;24.13;16.63;;;;;;;16.70;100.00;96103.50;1014979;29;20032;-66
2021/07/18 01:49:06;;;;;;;27.55;15.38;;;;;;;16.68;100.00;96092.41;1015238;29;20521;-65
2021/07/18 01:49:37;;;;;;;23.85;16.40;;;;;;;16.67;100.00;96092.72;1019798;28;20163;-66
2021/07/18 01:50:08;;;;;;;27.77;15.98;;;;;;;16.67;100.00;96092.72;1023575;28;20026;-66
2021/07/18 01:50:39;;;;;;;25.20;15.65;;;;;;;16.66;100.00;96097.22;1022992;29;20023;-65
2021/07/18 01:51:09;;;;;;;35.05;15.52;;;;;;;16.67;100.00;96098.00;1023023;29;20019;-66
2021/07/18 01:51:40;;;;;;;27.20;16.63;;;;;;;16.69;100.00;96093.19;1022791;28;20052;-65
2021/07/18 01:52:10;;;;;;;29.27;15.35;;;;;;;16.65;100.00;96090.34;1017908;29;20055;-65
2021/07/18 01:52:41;;;;;;;23.80;15.38;;;;;;;16.59;100.00;96082.78;1023121;29;20082;-66
2021/07/18 01:53:11;;;;;;;23.88;16.17;;;;;;;16.57;100.00;96087.59;1022158;28;20030;-66
2021/07/18 01:53:42;;;;;;;32.08;16.23;;;;;;;16.65;100.00;96094.88;1015120;29;20024;-66
2021/07/18 01:54:12;;;;;;;29.92;16.10;;;;;;;16.63;100.00;96089.88;1015049;29;20031;-66
2021/07/18 01:54:43;;;;;;;25.02;15.15;;;;;;;16.63;100.00;96095.16;1016575;29;20047;-66
2021/07/18 01:55:14;;;;;;;23.23;16.05;;;;;;;16.55;100.00;96076.50;1023109;28;20030;-66
2021/07/18 01:55:45;;;;;;;33.03;16.38;;;;;;;16.63;100.00;96092.50;1019098;29;20020;-66
2021/07/18 01:56:15;;;;;;;21.95;16.27;;;;;;;16.64;100.00;96096.72;1018075;29;20027;-66
2021/07/18 01:56:45;;;;;;;24.52;17.25;;;;;;;16.64;100.00;96094.09;1015794;29;20040;-66
2021/07/18 01:57:17;;;;;;;26.23;15.95;;;;;;;16.60;100.00;96087.81;1015191;29;20024;-65
2021/07/18 01:57:48;;;;;;;28.58;16.05;;;;;;;16.62;100.00;96096.22;1023499;28;20070;-67
2021/07/18 01:58:18;;;;;;;24.17;15.48;;;;;;;16.62;100.00;96084.84;1018246;29;20027;-67
2021/07/18 01:58:50;;;;;;;27.52;15.48;;;;;;;16.62;100.00;96092.78;1023064;29;20070;-66
2021/07/18 01:59:20;;;;;;;24.42;15.38;;;;;;;16.61;100.00;96088.59;1019280;29;20026;-66
2021/07/18 01:59:51;;;;;;;28.83;15.48;;;;;;;16.60;100.00;96087.00;1019151;28;20433;-66
2021/07/18 02:00:21;;;;;;;24.85;14.93;;;;;;;16.55;100.00;96079.94;1026877;28;20038;-66
2021/07/18 02:00:52;;;;;;;19.65;14.38;;;;;;;16.56;100.00;96086.78;1023219;28;20027;-64
2021/07/18 02:01:27;;;;;;;28.88;15.60;;;;;;;16.51;100.00;96078.94;1022604;28;20152;-63
2021/07/18 02:01:57;;;;;;;23.33;14.88;;;;;;;16.59;100.00;96091.50;1026080;28;20019;-66
2021/07/18 02:02:28;;;;;;;26.95;15.48;;;;;;;16.57;100.00;96082.31;1022768;29;20023;-67
2021/07/18 02:02:58;;;;;;;23.10;15.52;;;;;;;16.60;100.00;96085.16;1018974;29;20098;-66
2021/07/18 02:03:29;;;;;;;23.05;14.80;;;;;;;16.57;100.00;96091.03;1018620;28;20579;-66
2021/07/18 02:04:00;;;;;;;24.10;15.20;;;;;;;16.60;100.00;96082.50;1027303;28;20019;-66
2021/07/18 02:04:31;;;;;;;23.60;14.23;;;;;;;16.51;100.00;96073.66;1038842;28;20109;-66
2021/07/18 02:05:06;;;;;;;25.55;15.90;;;;;;;16.61;100.00;96089.38;1032528;28;20415;-68
2021/07/18 02:05:37;;;;;;;35.00;14.75;;;;;;;16.57;100.00;96092.91;1022752;29;20027;-65
2021/07/18 02:06:07;;;;;;;22.42;14.05;;;;;;;16.57;100.00;96090.25;1019229;29;20679;-66
2021/07/18 02:06:37;;;;;;;22.02;14.43;;;;;;;16.56;100.00;96088.66;1018432;29;20053;-65
2021/07/18 02:07:08;;;;;;;29.55;15.27;;;;;;;16.59;100.00;96091.50;1019112;28;20107;-66
2021/07/18 02:07:38;;;;;;;25.33;14.73;;;;;;;16.57;100.00;96093.69;1026618;28;20039;-67
2021/07/18 02:08:09;;;;;;;20.20;13.73;;;;;;;16.59;100.00;96094.16;1030864;28;20018;-67
2021/07/18 02:08:39;;;;;;;23.33;14.43;;;;;;;16.58;100.00;96083.88;1031153;28;20038;-66
2021/07/18 02:09:10;;;;;;;21.52;14.07;;;;;;;16.61;100.00;96097.31;1031170;28;20026;-66
2021/07/18 02:09:40;;;;;;;25.48;13.70;;;;;;;16.60;100.00;96095.75;1027004;28;20477;-66
2021/07/18 02:10:11;;;;;;;23.23;14.75;;;;;;;16.59;100.00;96091.50;1026262;28;20026;-66
2021/07/18 02:10:41;;;;;;;32.88;15.18;;;;;;;16.57;100.00;96092.91;1026812;28;20030;-66
2021/07/18 02:11:12;;;;;;;21.83;14.45;;;;;;;16.59;100.00;96090.72;1027056;28;20035;-66
2021/07/18 02:11:43;;;;;;;28.27;14.05;;;;;;;16.58;100.00;96089.16;1031032;28;20026;-67
2021/07/18 02:12:13;;;;;;;24.55;14.27;;;;;;;16.60;100.00;96090.44;1030694;28;20026;-66
2021/07/18 02:12:44;;;;;;;26.05;13.50;;;;;;;16.54;100.00;96086.31;1033094;28;20086;-66
2021/07/18 02:13:16;;;;;;;19.23;14.10;;;;;;;16.56;100.00;96092.09;1035158;28;20486;-66
2021/07/18 02:13:54;;;;;;;24.70;14.95;;;;;;;16.49;100.00;96079.22;1031340;28;20027;-65
2021/07/18 02:14:24;;;;;;;21.20;14.35;;;;;;;16.57;100.00;96087.59;1023120;29;20521;-66
2021/07/18 02:14:55;;;;;;;29.70;14.10;;;;;;;16.55;100.00;96085.22;1018912;29;20039;-66
2021/07/18 02:15:25;;;;;;;22.77;13.20;;;;;;;16.59;100.00;96085.44;1022519;29;20035;-66
2021/07/18 02:16:02;;;;;;;24.02;13.90;;;;;;;16.48;100.00;96079.53;1019484;29;20027;-66
2021/07/18 02:16:32;;;;;;;20.67;13.23;;;;;;;16.55;100.00;96084.44;1027785;28;20481;-66
2021/07/18 02:17:03;;;;;;;19.67;13.70;;;;;;;16.56;100.00;96088.66;1020238;29;20051;-66
2021/07/18 02:17:34;;;;;;;21.15;13.68;;;;;;;16.48;100.00;96079.53;1023467;28;20020;-67
2021/07/18 02:18:04;;;;;;;21.85;13.43;;;;;;;16.50;100.00;96085.31;1027015;28;20099;-66
2021/07/18 02:18:35;;;;;;;24.50;14.43;;;;;;;16.49;100.00;96081.09;1022452;28;20027;-66
2021/07/18 02:19:08;;;;;;;23.40;13.60;;;;;;;16.49;100.00;96078.44;1024868;28;20130;-66
2021/07/18 02:19:39;;;;;;;24.38;14.45;;;;;;;16.56;100.00;96081.50;1021024;28;20039;-66
2021/07/18 02:20:11;;;;;;;21.40;13.15;;;;;;;16.53;100.00;96082.06;1022705;29;20058;-67